createdAt,value
2019-02-24T00:01:45.736Z,98816.73
2019-02-24T00:06:41.554Z,98816.36
2019-02-24T00:11:37.345Z,98816.42
2019-02-24T00:16:33.190Z,98811.14
2019-02-24T00:21:28.967Z,98815.41
2019-02-24T00:26:24.820Z,98808.65
2019-02-24T00:31:20.585Z,98803.75
2019-02-24T00:36:16.291Z,98804.89
2019-02-24T00:41:12.251Z,98800.84
2019-02-24T00:46:09.480Z,98797.67
2019-02-24T00:51:05.265Z,98792.36
2019-02-24T00:56:01.027Z,98785.61
2019-02-24T01:00:57.924Z,98794.98
2019-02-24T01:05:53.812Z,98799.59
2019-02-24T01:10:49.688Z,98802.66
2019-02-24T01:15:45.662Z,98794.63
2019-02-24T01:20:41.463Z,98790.95
2019-02-24T01:25:37.284Z,98794.38
2019-02-24T01:30:33.103Z,98791.05
2019-02-24T01:35:28.936Z,98799.61
2019-02-24T01:40:24.758Z,98789.08
2019-02-24T01:45:20.508Z,98782.48
2019-02-24T01:50:16.336Z,98775.52
2019-02-24T01:55:12.322Z,98767.61
2019-02-24T02:00:09.153Z,98774.18
2019-02-24T02:05:05.152Z,98772.76
2019-02-24T02:10:01.033Z,98762.89
2019-02-24T02:14:56.882Z,98753.38
2019-02-24T02:19:52.660Z,98755.56
2019-02-24T02:24:48.499Z,98753.44
2019-02-24T02:29:44.374Z,98750.87
2019-02-24T02:34:40.194Z,98747.50
2019-02-24T02:39:36.086Z,98749.27
2019-02-24T02:44:32.033Z,98744.67
2019-02-24T02:49:27.867Z,98736.02
2019-02-24T02:54:23.947Z,98736.44
2019-02-24T02:59:19.816Z,98744.29
2019-02-24T03:04:15.640Z,98746.88
2019-02-24T03:09:12.342Z,98734.89
2019-02-24T03:14:08.158Z,98736.67
2019-02-24T03:19:03.985Z,98730.63
2019-02-24T03:23:59.854Z,98738.63
2019-02-24T03:29:03.857Z,98746.83
2019-02-24T03:33:53.429Z,98747.86
2019-02-24T03:38:49.301Z,98744.97
2019-02-24T03:43:48.702Z,98747.57
2019-02-24T03:48:44.518Z,98742.38
2019-02-24T03:53:40.342Z,98741.91
2019-02-24T03:58:36.251Z,98744.03
2019-02-24T04:03:32.419Z,98740.19
2019-02-24T04:08:28.279Z,98746.70
2019-02-24T04:13:24.092Z,98748.82
2019-02-24T04:18:19.953Z,98754.84
2019-02-24T04:23:15.769Z,98757.45
2019-02-24T04:28:13.400Z,98766.05
2019-02-24T04:33:09.275Z,98764.30
2019-02-24T04:38:05.145Z,98767.32
2019-02-24T04:43:01.177Z,98769.84
2019-02-24T04:47:57.270Z,98769.89
2019-02-24T04:52:53.266Z,98776.77
2019-02-24T04:57:49.209Z,98769.44
2019-02-24T05:02:45.314Z,98772.92
2019-02-24T05:07:43.196Z,98776.34
2019-02-24T05:12:42.019Z,98765.63
2019-02-24T05:17:38.761Z,98763.91
2019-02-24T05:22:34.805Z,98771.20
2019-02-24T05:27:32.401Z,98768.17
2019-02-24T05:32:28.235Z,98777.62
2019-02-24T05:37:24.183Z,98779.34
2019-02-24T05:42:21.593Z,98779.75
2019-02-24T05:47:19.346Z,98790.06
2019-02-24T05:52:17.956Z,98796.08
2019-02-24T05:57:17.066Z,98800.77
2019-02-24T06:02:28.274Z,98816.20
2019-02-24T06:07:24.590Z,98814.11
2019-02-24T06:12:25.123Z,98809.80
2019-02-24T06:17:24.272Z,98826.97
2019-02-24T06:22:20.265Z,98832.05
2019-02-24T06:27:19.497Z,98835.11
2019-02-24T06:32:15.339Z,98847.09
2019-02-24T06:37:11.396Z,98852.66
2019-02-24T06:42:07.257Z,98852.73
2019-02-24T06:47:03.094Z,98866.42
2019-02-24T06:51:59.820Z,98868.59
2019-02-24T06:57:32.643Z,98874.13
2019-02-24T07:02:28.530Z,98878.05
2019-02-24T07:07:24.382Z,98890.45
2019-02-24T07:12:20.482Z,98886.19
2019-02-24T07:17:16.383Z,98884.07
2019-02-24T07:22:12.594Z,98885.78
2019-02-24T07:27:08.872Z,98891.39
2019-02-24T07:32:04.708Z,98891.80
2019-02-24T07:37:00.566Z,98898.64
2019-02-24T07:41:57.638Z,98896.47
2019-02-24T07:46:55.571Z,98901.10
2019-02-24T07:51:51.065Z,98899.30
2019-02-24T07:56:46.929Z,98900.94
2019-02-24T08:01:42.751Z,98910.22
2019-02-24T08:06:38.710Z,98912.47
2019-02-24T08:11:34.566Z,98901.98
2019-02-24T08:16:30.788Z,98905.02
2019-02-24T08:21:26.883Z,98905.96
2019-02-24T08:26:22.909Z,98898.23
2019-02-24T08:31:18.843Z,98901.08
2019-02-24T08:36:15.100Z,98904.17
2019-02-24T08:41:11.401Z,98906.28
2019-02-24T08:46:07.197Z,98922.16
2019-02-24T08:51:03.132Z,98924.64
2019-02-24T08:55:59.156Z,98934.13
2019-02-24T09:00:55.019Z,98940.69
2019-02-24T09:05:50.879Z,98948.97
2019-02-24T09:10:46.820Z,98959.55
2019-02-24T09:15:42.813Z,98949.73
2019-02-24T09:20:38.711Z,98953.90
2019-02-24T09:25:34.643Z,98953.62
2019-02-24T09:30:30.551Z,98951.45
2019-02-24T09:35:26.407Z,98955.09
2019-02-24T09:40:22.234Z,98946.90
2019-02-24T09:45:18.041Z,98957.58
2019-02-24T09:50:13.947Z,98960.22
2019-02-24T09:55:09.747Z,98961.05
2019-02-24T10:00:06.206Z,98959.64
2019-02-24T10:05:02.091Z,98970.77
2019-02-24T10:09:57.975Z,98966.42
2019-02-24T10:14:53.733Z,98965.95
2019-02-24T10:26:01.418Z,98962.31
2019-02-24T10:30:57.405Z,98967.02
2019-02-24T10:35:54.690Z,98965.63
2019-02-24T10:40:50.607Z,98967.70
2019-02-24T10:45:46.534Z,98951.00
2019-02-24T10:50:42.318Z,98947.77
2019-02-24T10:55:38.248Z,98939.44
2019-02-24T11:00:34.043Z,98922.80
2019-02-24T11:05:33.860Z,98921.34
2019-02-24T11:10:36.083Z,98915.42
2019-02-24T11:15:31.931Z,98904.84
2019-02-24T11:20:27.976Z,98904.17
2019-02-24T11:25:24.671Z,98894.53
2019-02-24T11:30:20.527Z,98888.14
2019-02-24T11:35:16.411Z,98886.23
2019-02-24T11:40:12.226Z,98882.48
2019-02-24T11:45:08.409Z,98875.56
2019-02-24T11:50:04.455Z,98867.59
2019-02-24T11:55:00.352Z,98860.58
2019-02-24T11:59:56.225Z,98851.45
2019-02-24T12:04:53.600Z,98852.59
2019-02-24T12:09:52.702Z,98858.77
2019-02-24T12:14:48.503Z,98841.83
2019-02-24T12:19:44.532Z,98822.35
2019-02-24T12:24:41.901Z,98829.41
2019-02-24T12:29:42.366Z,98831.84
2019-02-24T12:34:38.603Z,98824.28
2019-02-24T12:39:34.454Z,98828.53
2019-02-24T12:44:40.964Z,98825.73
2019-02-24T12:49:37.008Z,98818.53
2019-02-24T12:54:33.177Z,98807.42
2019-02-24T12:59:29.315Z,98809.92
2019-02-24T13:04:36.279Z,98799.31
2019-02-24T13:09:33.808Z,98802.14
2019-02-24T13:14:31.657Z,98794.64
2019-02-24T13:19:28.102Z,98810.41
2019-02-24T13:24:25.523Z,98813.65
2019-02-24T13:29:23.143Z,98814.45
2019-02-24T13:34:19.224Z,98799.34
2019-02-24T13:39:15.182Z,98812.70
2019-02-24T13:44:13.825Z,98813.53
2019-02-24T13:49:14.832Z,98812.95
2019-02-24T13:54:13.066Z,98796.73
2019-02-24T13:59:14.172Z,98798.49
2019-02-24T14:04:10.087Z,98799.11
2019-02-24T14:09:13.014Z,98791.75
2019-02-24T14:14:16.342Z,98804.28
2019-02-24T14:19:17.856Z,98827.91
2019-02-24T14:24:15.836Z,98822.52
2019-02-24T14:29:12.711Z,98823.91
2019-02-24T14:34:09.741Z,98837.05
2019-02-24T14:39:07.636Z,98835.50
2019-02-24T14:44:06.107Z,98834.00
2019-02-24T14:49:03.071Z,98824.12
2019-02-24T14:54:01.056Z,98833.34
2019-02-24T14:59:00.407Z,98827.75
2019-02-24T15:03:57.049Z,98837.23
2019-02-24T15:08:54.033Z,98844.13
2019-02-24T15:13:50.288Z,98848.30
2019-02-24T15:18:47.490Z,98854.30
2019-02-24T15:23:44.208Z,98857.73
2019-02-24T15:28:41.952Z,98849.70
2019-02-24T15:33:40.870Z,98845.08
2019-02-24T15:38:39.731Z,98842.19
2019-02-24T16:03:32.652Z,98847.22
2019-02-24T16:08:37.607Z,98838.10
2019-02-24T16:14:33.477Z,98841.84
2019-02-24T16:30:51.405Z,98826.52
2019-02-24T16:42:36.007Z,98843.88
2019-02-24T16:53:36.139Z,98835.97
2019-02-24T17:04:09.706Z,98853.98
2019-02-24T17:09:08.409Z,98847.98
2019-02-24T17:14:04.194Z,98870.20
2019-02-24T17:19:07.665Z,98868.55
2019-02-24T17:24:06.576Z,98863.23
2019-02-24T17:29:05.775Z,98860.73
2019-02-24T17:34:11.669Z,98879.91
2019-02-24T17:39:10.111Z,98878.21
2019-02-24T17:44:06.186Z,98891.03
2019-02-24T17:49:07.302Z,98904.11
2019-02-24T17:54:03.405Z,98908.61
2019-02-24T17:59:00.667Z,98906.34
2019-02-24T18:03:58.816Z,98891.00
2019-02-24T18:08:54.879Z,98881.06
2019-02-24T18:13:50.983Z,98883.29
2019-02-24T18:18:46.943Z,98884.34
2019-02-24T18:23:45.712Z,98882.15
2019-02-24T18:28:42.039Z,98885.03
2019-02-24T18:33:38.048Z,98889.66
2019-02-24T18:38:34.251Z,98880.89
2019-02-24T18:43:30.705Z,98891.20
2019-02-24T18:48:26.793Z,98883.77
2019-02-24T18:53:24.650Z,98892.20
2019-02-24T18:58:21.229Z,98888.06
2019-02-24T19:03:17.367Z,98885.91
2019-02-24T19:08:15.280Z,98896.31
2019-02-24T19:13:11.068Z,98893.80
2019-02-24T19:18:08.031Z,98900.11
2019-02-24T19:23:04.274Z,98910.45
2019-02-24T19:28:00.434Z,98924.84
2019-02-24T19:32:57.219Z,98919.65
2019-02-24T19:37:53.622Z,98930.58
2019-02-24T19:42:50.534Z,98921.59
2019-02-24T19:47:46.570Z,98910.64
2019-02-24T19:52:42.600Z,98913.87
2019-02-24T19:57:45.096Z,98918.14
2019-02-24T20:08:53.630Z,98924.85
2019-02-24T20:13:52.016Z,98915.63
2019-02-24T20:18:53.774Z,98918.09
2019-02-24T20:23:51.806Z,98922.77
2019-02-24T20:29:17.636Z,98932.47
2019-02-24T20:34:24.965Z,98927.75
2019-02-24T20:39:17.783Z,98933.94
2019-02-24T20:44:18.628Z,98943.41
2019-02-24T20:49:29.865Z,98943.64
2019-02-24T20:54:26.250Z,98942.09
2019-02-24T20:59:25.750Z,98927.73
2019-02-24T21:04:23.165Z,98933.84
2019-02-24T21:09:35.425Z,98934.18
2019-02-24T21:15:59.598Z,98944.59
2019-02-24T21:21:08.646Z,98943.30
2019-02-24T21:26:04.654Z,98947.73
2019-02-24T21:31:03.570Z,98938.48
2019-02-24T21:36:05.354Z,98941.44
2019-02-24T21:41:01.226Z,98946.59
2019-02-24T21:45:57.190Z,98951.39
2019-02-24T21:50:56.011Z,98944.38
2019-02-24T21:55:52.003Z,98946.22
2019-02-24T22:00:50.067Z,98947.66
2019-02-24T22:05:51.307Z,98951.27
2019-02-24T22:10:47.352Z,98947.87
2019-02-24T22:15:43.343Z,98937.86
2019-02-24T22:20:39.342Z,98945.73
2019-02-24T22:25:36.501Z,98941.46
2019-02-24T22:30:37.073Z,98934.37
2019-02-24T22:35:33.146Z,98947.55
2019-02-24T22:40:29.140Z,98948.43
2019-02-24T22:45:28.049Z,98940.64
2019-02-24T22:50:23.934Z,98951.91
2019-02-24T22:55:22.405Z,98946.63
2019-02-24T23:00:58.810Z,98943.91
2019-02-24T23:05:55.032Z,98945.28
2019-02-24T23:10:55.280Z,98942.55
2019-02-24T23:15:56.379Z,98938.39
2019-02-24T23:20:58.691Z,98928.92
2019-02-24T23:25:54.748Z,98924.56
2019-02-24T23:30:59.610Z,98931.40
2019-02-24T23:35:58.597Z,98925.80
2019-02-24T23:40:55.795Z,98929.27
2019-02-24T23:45:51.621Z,98922.72
2019-02-24T23:50:55.305Z,98919.37
2019-02-24T23:55:51.432Z,98919.52
